This is the latest recevied weather packets stored in our database for station/object DC7RY. If no packets are shown the sender has not sent any weather packets the latest 1 day(s).
| Time | Temp. | Humidity | Pressure | Rain* | Wind** | Luminosity | Snow |
|---|---|---|---|---|---|---|---|
| 1778082023 | 19.44° C | 63% | 999.9 hPa | 0 mm | - | 88 W/m² | - |
| 1778080817 | 19.44° C | 62% | 999.9 hPa | 0 mm | - | 101 W/m² | - |
| 1778080223 | 19.44° C | 62% | 1000 hPa | 0 mm | - | 118 W/m² | - |
| 1778077818 | 21.11° C | 57% | 1000.2 hPa | 0 mm | - | 171 W/m² | - |
| 1778076632 | 20.56° C | 56% | 1000.2 hPa | 0 mm | - | 299 W/m² | - |
| 1778076024 | 20.56° C | 58% | 1000.1 hPa | 0 mm | - | 220 W/m² | - |
| 1778075431 | 20.56° C | 58% | 1000.1 hPa | 0 mm | - | 230 W/m² | - |
| 1778074821 | 20.56° C | 58% | 1000.2 hPa | 0 mm | - | 191 W/m² | - |
| 1778074228 | 20.56° C | 56% | 1000.3 hPa | 0 mm | - | 197 W/m² | - |
| 1778073620 | 20° C | 58% | 1000.4 hPa | 0 mm | - | 213 W/m² | - |
| 1778072420 | 20° C | 62% | 1000.4 hPa | 0 mm | - | 283 W/m² | - |
| 1778071828 | 20° C | 62% | 1000.4 hPa | 0 mm | - | 220 W/m² | - |
| 1778071220 | 20° C | 58% | 1000.5 hPa | 0 mm | - | 205 W/m² | - |
| 1778070627 | 20° C | 61% | 1000.5 hPa | 0 mm | - | 182 W/m² | - |
| 1778070019 | 19.44° C | 61% | 1000.5 hPa | 0 mm | - | 217 W/m² | - |
| 1778069427 | 18.89° C | 60% | 1000.4 hPa | 0 mm | - | 252 W/m² | - |
| 1778068819 | 18.89° C | 67% | 1000.6 hPa | 0 mm | - | 235 W/m² | - |
| 1778068227 | 18.89° C | 66% | 1000.5 hPa | 0 mm | - | 120 W/m² | - |
| 1778067617 | 18.89° C | 65% | 1000.6 hPa | 0 mm | - | 178 W/m² | - |
| 1778067023 | 19.44° C | 67% | 1000.7 hPa | 0 mm | - | 131 W/m² | - |
| 1778066430 | 20° C | 67% | 1001 hPa | 0 mm | - | 140 W/m² | - |
| 1778065821 | 20° C | 63% | 1000.9 hPa | 0 mm | - | 272 W/m² | - |
| 1778065229 | 19.44° C | 62% | 1001 hPa | 0 mm | - | 389 W/m² | - |
| 1778064621 | 18.89° C | 64% | 1000.8 hPa | 0 mm | - | 478 W/m² | - |
| 1778064029 | 18.89° C | 66% | 1000.9 hPa | 0 mm | - | 364 W/m² | - |
* Rain latest hour (hover to see other rain measurements)
** Current wind speed in m/s (hover to see current wind gust speed)